Time;durP1;ratioP1;P1;durP2;ratioP2;P2;SDS_P1;SDS_P2;PMS_P1;PMS_P2;Temp;Humidity;BMP_temperature;BMP_pressure;BME280_temperature;BME280_humidity;BME280_pressure;Samples;Min_cycle;Max_cycle;Signal;HPM_P1;HPM_P2
2022/02/14 13:16:08;;;;;;;1.98;1.60;;;8.90;99.90;;;;;;5091277;28;20544;-70
2022/02/14 13:18:45;;;;;;;3.97;1.98;;;9.10;99.90;;;;;;5090960;28;20168;-70
2022/02/14 13:21:15;;;;;;;6.28;1.90;;;9.10;99.90;;;;;;5090723;28;20202;-70
2022/02/14 13:23:41;;;;;;;6.07;2.05;;;9.10;99.90;;;;;;5090774;28;20252;-70
2022/02/14 13:26:21;;;;;;;4.65;1.80;;;9.10;99.90;;;;;;5090788;28;20528;-70
2022/02/14 13:28:48;;;;;;;1.52;1.52;;;9.00;99.90;;;;;;5090764;28;20254;-70
2022/02/14 13:31:24;;;;;;;3.38;1.98;;;9.10;99.90;;;;;;5090653;28;20523;-70
2022/02/14 13:33:52;;;;;;;5.22;1.83;;;9.20;99.90;;;;;;5090520;28;20179;-71
2022/02/14 13:36:18;;;;;;;3.58;2.10;;;9.20;99.90;;;;;;5090559;28;20202;-70
2022/02/14 13:38:43;;;;;;;2.15;2.05;;;9.20;99.90;;;;;;5090529;28;20179;-70
2022/02/14 14:03:08;;;;;;;2.20;1.67;;;8.90;99.90;;;;;;5090845;27;20537;-70
2022/02/14 14:05:40;;;;;;;5.03;1.88;;;9.00;99.90;;;;;;5090926;28;20175;-70
2022/02/14 14:08:07;;;;;;;1.90;1.80;;;9.10;99.90;;;;;;5090884;28;20183;-71
2022/02/14 14:10:40;;;;;;;1.65;1.55;;;9.10;99.90;;;;;;5089528;28;20334;-70
2022/02/14 14:13:07;;;;;;;3.80;1.77;;;9.10;99.90;;;;;;5090787;28;20629;-70
2022/02/14 14:15:34;;;;;;;2.47;1.65;;;9.10;99.90;;;;;;5090725;28;20171;-70
2022/02/14 14:18:00;;;;;;;2.67;2.42;;;9.10;99.90;;;;;;5090760;28;20645;-70
2022/02/14 14:20:26;;;;;;;4.75;1.88;;;9.10;99.90;;;;;;5090701;28;20168;-70
2022/02/14 14:22:52;;;;;;;2.35;1.63;;;9.20;99.90;;;;;;5090502;28;20625;-70
2022/02/14 14:25:18;;;;;;;1.88;1.77;;;9.40;99.90;;;;;;5090529;28;20195;-70
2022/02/14 14:27:47;;;;;;;13.20;2.30;;;9.40;99.90;;;;;;5090502;28;20168;-71
2022/02/14 14:30:14;;;;;;;1.98;1.83;;;9.40;99.90;;;;;;5090389;28;20160;-70
2022/02/14 14:32:41;;;;;;;5.45;2.08;;;9.40;99.90;;;;;;5090418;28;20182;-70
2022/02/14 14:35:07;;;;;;;1.95;1.85;;;9.40;99.90;;;;;;5090400;28;20199;-70
2022/02/14 14:37:33;;;;;;;2.60;1.60;;;9.30;99.90;;;;;;5088943;28;20645;-70
2022/02/14 14:39:58;;;;;;;1.60;1.50;;;9.30;99.90;;;;;;5090230;28;20179;-70
2022/02/14 14:42:25;;;;;;;1.65;1.38;;;9.20;99.90;;;;;;5090075;28;20665;-70
2022/02/14 14:44:51;;;;;;;1.65;1.40;;;9.30;99.90;;;;;;5090074;28;20191;-70
2022/02/14 14:47:17;;;;;;;1.60;1.50;;;9.20;99.90;;;;;;5090092;28;20217;-70
2022/02/14 14:49:42;;;;;;;3.45;2.10;;;9.30;99.90;;;;;;5090008;28;20581;-70
2022/02/14 14:52:09;;;;;;;1.52;1.50;;;9.30;99.90;;;;;;5090104;28;20168;-70
2022/02/14 14:54:36;;;;;;;1.60;1.50;;;9.30;99.90;;;;;;5089974;28;20168;-70
2022/02/14 14:57:03;;;;;;;2.35;1.20;;;9.30;99.90;;;;;;5089839;28;20171;-70
2022/02/14 14:59:30;;;;;;;2.45;1.90;;;9.30;99.90;;;;;;5088623;28;20626;-70
2022/02/14 15:01:56;;;;;;;1.33;1.33;;;9.20;99.90;;;;;;5089626;28;20685;-70
2022/02/14 15:04:23;;;;;;;4.15;1.45;;;9.10;99.90;;;;;;5089741;28;20167;-70
2022/02/14 15:06:49;;;;;;;2.92;1.70;;;9.10;99.90;;;;;;5089720;28;20168;-70
2022/02/14 15:09:15;;;;;;;3.03;1.63;;;9.00;99.90;;;;;;5089656;28;20205;-71
2022/02/14 15:11:41;;;;;;;1.48;1.38;;;9.00;99.90;;;;;;5089576;28;20199;-71
2022/02/14 15:14:08;;;;;;;1.70;1.60;;;9.10;99.90;;;;;;5077544;28;20187;-71
2022/02/14 15:16:35;;;;;;;1.65;1.33;;;9.00;99.90;;;;;;5074696;28;20241;-71
2022/02/14 15:19:07;;;;;;;2.00;1.60;;;9.00;99.90;;;;;;5075978;28;20203;-71
2022/02/14 15:21:33;;;;;;;1.50;1.40;;;8.90;99.90;;;;;;5075916;28;20188;-71
2022/02/14 15:23:58;;;;;;;5.45;1.60;;;9.90;99.90;;;;;;5075918;28;20157;-71
2022/02/14 15:26:24;;;;;;;1.85;1.63;;;8.90;99.90;;;;;;5075854;28;20221;-71
2022/02/14 15:28:49;;;;;;;4.07;1.55;;;8.90;99.90;;;;;;5075791;28;20173;-71
2022/02/14 15:31:15;;;;;;;3.85;1.70;;;9.00;99.90;;;;;;5075675;28;20520;-71
2022/02/14 15:33:41;;;;;;;3.15;2.00;;;9.00;99.90;;;;;;5075745;28;20172;-72
2022/02/14 15:36:08;;;;;;;4.22;1.58;;;9.00;99.90;;;;;;5075691;28;20242;-72
2022/02/14 15:38:34;;;;;;;2.75;1.65;;;9.00;99.90;;;;;;5075546;28;20176;-72
2022/02/14 15:41:00;;;;;;;3.90;2.38;;;9.10;99.90;;;;;;5075476;28;20543;-72
2022/02/14 15:43:26;;;;;;;2.53;1.70;;;9.10;99.90;;;;;;5074314;28;20264;-72
2022/02/14 15:45:54;;;;;;;6.10;1.80;;;9.00;99.90;;;;;;5075418;28;20650;-72
2022/02/14 15:48:21;;;;;;;2.22;1.40;;;8.90;99.90;;;;;;5075456;28;20185;-72
2022/02/14 15:50:47;;;;;;;1.98;1.88;;;9.00;99.90;;;;;;5075452;28;20172;-72
2022/02/14 15:53:12;;;;;;;5.07;2.42;;;8.90;99.90;;;;;;5075264;28;20172;-72
2022/02/14 15:55:39;;;;;;;3.38;1.98;;;8.80;99.90;;;;;;5075259;28;20173;-72
2022/02/14 15:58:05;;;;;;;1.75;1.65;;;8.80;99.90;;;;;;5074025;28;20637;-72
2022/02/14 16:00:31;;;;;;;1.80;1.70;;;8.80;99.90;;;;;;5075237;28;20214;-72
2022/02/14 16:02:56;;;;;;;2.33;2.17;;;8.80;99.90;;;;;;5074945;28;20220;-72
2022/02/14 16:05:22;;;;;;;1.52;1.48;;;8.80;99.90;;;;;;5075175;28;20176;-70
